sensor_id;sensor_type;location;lat;lon;timestamp;pressure;altitude;pressure_sealevel;temperature;humidity
45763;BME280;37512;52.408;13.356;2023-02-28T00:00:21;102649.47;;;0.40;100.00
45763;BME280;37512;52.408;13.356;2023-02-28T00:04:23;102654.59;;;0.53;100.00
45763;BME280;37512;52.408;13.356;2023-02-28T00:08:25;102649.31;;;0.30;100.00
45763;BME280;37512;52.408;13.356;2023-02-28T00:12:27;102639.34;;;0.07;100.00
45763;BME280;37512;52.408;13.356;2023-02-28T00:16:28;102647.81;;;0.22;100.00
45763;BME280;37512;52.408;13.356;2023-02-28T00:20:30;102644.34;;;0.44;100.00
45763;BME280;37512;52.408;13.356;2023-02-28T00:24:31;102649.47;;;0.40;100.00
45763;BME280;37512;52.408;13.356;2023-02-28T00:28:33;102653.03;;;0.40;100.00
45763;BME280;37512;52.408;13.356;2023-02-28T00:32:34;102648.78;;;0.67;100.00
45763;BME280;37512;52.408;13.356;2023-02-28T00:36:36;102645.09;;;0.39;100.00
45763;BME280;37512;52.408;13.356;2023-02-28T00:40:37;102646.75;;;0.40;100.00
45763;BME280;37512;52.408;13.356;2023-02-28T00:44:39;102656.56;;;0.41;100.00
45763;BME280;37512;52.408;13.356;2023-02-28T00:48:40;102652.94;;;0.52;100.00
45763;BME280;37512;52.408;13.356;2023-02-28T00:52:42;102651.78;;;0.48;100.00
45763;BME280;37512;52.408;13.356;2023-02-28T00:56:44;102648.75;;;0.83;100.00
45763;BME280;37512;52.408;13.356;2023-02-28T01:00:47;102655.06;;;0.67;100.00
45763;BME280;37512;52.408;13.356;2023-02-28T01:04:51;102652.22;;;0.23;100.00
45763;BME280;37512;52.408;13.356;2023-02-28T01:08:53;102652.28;;;0.62;100.00
45763;BME280;37512;52.408;13.356;2023-02-28T01:12:54;102661.13;;;0.52;100.00
45763;BME280;37512;52.408;13.356;2023-02-28T01:16:56;102649.84;;;0.66;100.00
45763;BME280;37512;52.408;13.356;2023-02-28T01:20:57;102642.53;;;0.32;100.00
45763;BME280;37512;52.408;13.356;2023-02-28T01:24:59;102635.06;;;0.45;100.00
45763;BME280;37512;52.408;13.356;2023-02-28T01:29:00;102650.72;;;0.49;100.00
45763;BME280;37512;52.408;13.356;2023-02-28T01:33:02;102645.00;;;0.51;100.00
45763;BME280;37512;52.408;13.356;2023-02-28T01:37:04;102642.56;;;0.54;100.00
45763;BME280;37512;52.408;13.356;2023-02-28T01:41:06;102637.75;;;0.61;100.00
45763;BME280;37512;52.408;13.356;2023-02-28T01:45:27;102635.13;;;0.50;100.00
45763;BME280;37512;52.408;13.356;2023-02-28T01:49:29;102633.78;;;0.69;100.00
45763;BME280;37512;52.408;13.356;2023-02-28T01:53:38;102639.22;;;0.30;100.00
45763;BME280;37512;52.408;13.356;2023-02-28T01:57:45;102633.69;;;0.25;100.00
45763;BME280;37512;52.408;13.356;2023-02-28T02:01:48;102633.50;;;0.49;100.00
45763;BME280;37512;52.408;13.356;2023-02-28T02:05:50;102637.63;;;0.01;100.00
45763;BME280;37512;52.408;13.356;2023-02-28T02:10:11;102627.78;;;-0.01;100.00
45763;BME280;37512;52.408;13.356;2023-02-28T02:14:51;102645.38;;;-0.08;100.00
45763;BME280;37512;52.408;13.356;2023-02-28T02:37:23;102640.66;;;-0.13;100.00
45763;BME280;37512;52.408;13.356;2023-02-28T02:41:46;102638.09;;;-0.77;100.00
45763;BME280;37512;52.408;13.356;2023-02-28T02:45:55;102637.91;;;-0.58;100.00
45763;BME280;37512;52.408;13.356;2023-02-28T02:49:59;102633.88;;;-0.56;100.00
45763;BME280;37512;52.408;13.356;2023-02-28T02:54:10;102631.28;;;-0.34;100.00
45763;BME280;37512;52.408;13.356;2023-02-28T02:58:17;102640.00;;;-0.89;100.00
45763;BME280;37512;52.408;13.356;2023-02-28T03:02:20;102642.13;;;-0.79;100.00
45763;BME280;37512;52.408;13.356;2023-02-28T03:06:24;102648.13;;;-1.18;100.00
45763;BME280;37512;52.408;13.356;2023-02-28T03:18:52;102639.50;;;-1.38;100.00
45763;BME280;37512;52.408;13.356;2023-02-28T03:27:30;102649.19;;;-1.42;100.00
45763;BME280;37512;52.408;13.356;2023-02-28T03:31:40;102647.66;;;-1.38;100.00
45763;BME280;37512;52.408;13.356;2023-02-28T03:35:52;102654.91;;;-1.32;100.00
45763;BME280;37512;52.408;13.356;2023-02-28T03:40:00;102661.78;;;-1.41;100.00
45763;BME280;37512;52.408;13.356;2023-02-28T03:44:09;102654.75;;;-1.26;100.00
45763;BME280;37512;52.408;13.356;2023-02-28T03:48:27;102660.31;;;-1.09;100.00
45763;BME280;37512;52.408;13.356;2023-02-28T03:52:37;102662.00;;;-1.43;100.00
45763;BME280;37512;52.408;13.356;2023-02-28T03:56:51;102657.00;;;-1.46;100.00
45763;BME280;37512;52.408;13.356;2023-02-28T04:01:07;102649.31;;;-1.37;100.00
45763;BME280;37512;52.408;13.356;2023-02-28T04:05:09;102653.00;;;-1.32;100.00
45763;BME280;37512;52.408;13.356;2023-02-28T04:09:14;102662.59;;;-1.53;100.00
45763;BME280;37512;52.408;13.356;2023-02-28T04:13:16;102659.88;;;-1.53;100.00
45763;BME280;37512;52.408;13.356;2023-02-28T04:17:17;102664.94;;;-1.33;100.00
45763;BME280;37512;52.408;13.356;2023-02-28T04:21:19;102663.31;;;-1.57;100.00
45763;BME280;37512;52.408;13.356;2023-02-28T04:25:25;102659.88;;;-1.53;100.00
45763;BME280;37512;52.408;13.356;2023-02-28T04:29:29;102661.63;;;-1.47;100.00
45763;BME280;37512;52.408;13.356;2023-02-28T04:33:32;102660.63;;;-1.87;100.00
45763;BME280;37512;52.408;13.356;2023-02-28T04:37:33;102667.75;;;-1.75;100.00
45763;BME280;37512;52.408;13.356;2023-02-28T04:41:36;102675.63;;;-1.55;100.00
45763;BME280;37512;52.408;13.356;2023-02-28T04:45:37;102669.56;;;-1.57;100.00
45763;BME280;37512;52.408;13.356;2023-02-28T04:49:39;102676.53;;;-1.49;100.00
45763;BME280;37512;52.408;13.356;2023-02-28T04:53:42;102677.34;;;-1.72;100.00
45763;BME280;37512;52.408;13.356;2023-02-28T04:57:44;102684.53;;;-1.90;100.00
45763;BME280;37512;52.408;13.356;2023-02-28T05:01:47;102688.25;;;-2.14;100.00
45763;BME280;37512;52.408;13.356;2023-02-28T05:05:49;102682.31;;;-1.81;100.00
45763;BME280;37512;52.408;13.356;2023-02-28T05:09:50;102683.97;;;-1.80;100.00
45763;BME280;37512;52.408;13.356;2023-02-28T05:13:52;102682.50;;;-1.94;100.00
45763;BME280;37512;52.408;13.356;2023-02-28T05:17:56;102688.03;;;-2.01;100.00
45763;BME280;37512;52.408;13.356;2023-02-28T05:21:57;102690.06;;;-1.96;100.00
45763;BME280;37512;52.408;13.356;2023-02-28T05:25:59;102685.56;;;-2.02;100.00
45763;BME280;37512;52.408;13.356;2023-02-28T05:30:00;102699.22;;;-1.91;100.00
45763;BME280;37512;52.408;13.356;2023-02-28T05:34:05;102691.03;;;-1.91;100.00
45763;BME280;37512;52.408;13.356;2023-02-28T05:38:06;102692.75;;;-1.78;100.00
45763;BME280;37512;52.408;13.356;2023-02-28T05:42:08;102694.50;;;-1.72;100.00
45763;BME280;37512;52.408;13.356;2023-02-28T05:46:11;102695.66;;;-1.91;100.00
45763;BME280;37512;52.408;13.356;2023-02-28T05:50:12;102707.00;;;-1.94;100.00
45763;BME280;37512;52.408;13.356;2023-02-28T05:54:14;102705.91;;;-2.05;100.00
45763;BME280;37512;52.408;13.356;2023-02-28T05:58:16;102707.19;;;-2.38;100.00
45763;BME280;37512;52.408;13.356;2023-02-28T06:02:17;102709.16;;;-2.45;100.00
45763;BME280;37512;52.408;13.356;2023-02-28T06:06:19;102707.66;;;-2.41;100.00
45763;BME280;37512;52.408;13.356;2023-02-28T06:10:20;102715.34;;;-2.38;100.00
45763;BME280;37512;52.408;13.356;2023-02-28T06:14:22;102720.94;;;-2.51;100.00
45763;BME280;37512;52.408;13.356;2023-02-28T06:18:23;102717.31;;;-2.45;100.00
45763;BME280;37512;52.408;13.356;2023-02-28T06:22:25;102718.22;;;-2.33;100.00
45763;BME280;37512;52.408;13.356;2023-02-28T06:26:26;102726.13;;;-2.01;100.00
45763;BME280;37512;52.408;13.356;2023-02-28T06:30:28;102723.63;;;-2.14;100.00
45763;BME280;37512;52.408;13.356;2023-02-28T06:34:31;102728.88;;;-2.01;100.00
45763;BME280;37512;52.408;13.356;2023-02-28T06:38:35;102738.00;;;-1.95;100.00
45763;BME280;37512;52.408;13.356;2023-02-28T06:42:37;102743.44;;;-1.95;100.00
45763;BME280;37512;52.408;13.356;2023-02-28T06:46:40;102743.41;;;-1.77;100.00
45763;BME280;37512;52.408;13.356;2023-02-28T06:50:42;102750.19;;;-1.56;100.00
45763;BME280;37512;52.408;13.356;2023-02-28T06:54:44;102744.31;;;-1.29;100.00
45763;BME280;37512;52.408;13.356;2023-02-28T06:58:48;102746.81;;;-1.16;100.00
45763;BME280;37512;52.408;13.356;2023-02-28T07:02:50;102750.13;;;-1.14;100.00
45763;BME280;37512;52.408;13.356;2023-02-28T07:06:52;102746.22;;;-1.06;100.00
45763;BME280;37512;52.408;13.356;2023-02-28T07:10:56;102756.66;;;-0.79;100.00
45763;BME280;37512;52.408;13.356;2023-02-28T07:14:57;102751.19;;;-0.68;100.00
45763;BME280;37512;52.408;13.356;2023-02-28T07:18:59;102754.72;;;-0.55;100.00
45763;BME280;37512;52.408;13.356;2023-02-28T07:23:01;102756.91;;;-0.29;100.00
45763;BME280;37512;52.408;13.356;2023-02-28T07:27:02;102762.00;;;-0.20;100.00
45763;BME280;37512;52.408;13.356;2023-02-28T07:31:05;102753.31;;;-0.17;100.00
45763;BME280;37512;52.408;13.356;2023-02-28T07:35:07;102762.41;;;0.00;100.00
45763;BME280;37512;52.408;13.356;2023-02-28T07:39:09;102759.00;;;-0.19;100.00
45763;BME280;37512;52.408;13.356;2023-02-28T07:43:11;102760.53;;;0.17;100.00
45763;BME280;37512;52.408;13.356;2023-02-28T07:47:12;102764.41;;;0.50;100.00
45763;BME280;37512;52.408;13.356;2023-02-28T07:51:14;102750.38;;;0.63;100.00
45763;BME280;37512;52.408;13.356;2023-02-28T07:55:15;102756.09;;;1.13;100.00
45763;BME280;37512;52.408;13.356;2023-02-28T07:59:17;102756.13;;;1.35;96.97
45763;BME280;37512;52.408;13.356;2023-02-28T08:03:20;102756.88;;;1.52;84.78
45763;BME280;37512;52.408;13.356;2023-02-28T08:07:22;102759.13;;;1.33;81.27
45763;BME280;37512;52.408;13.356;2023-02-28T08:11:23;102752.44;;;1.90;74.75
45763;BME280;37512;52.408;13.356;2023-02-28T08:15:25;102762.94;;;2.25;73.88
45763;BME280;37512;52.408;13.356;2023-02-28T08:19:27;102756.78;;;2.40;68.92
45763;BME280;37512;52.408;13.356;2023-02-28T08:23:28;102757.78;;;2.29;62.51
45763;BME280;37512;52.408;13.356;2023-02-28T08:27:30;102762.31;;;2.78;61.90
45763;BME280;37512;52.408;13.356;2023-02-28T08:31:31;102764.06;;;2.94;60.10
45763;BME280;37512;52.408;13.356;2023-02-28T08:35:35;102760.31;;;3.05;57.07
45763;BME280;37512;52.408;13.356;2023-02-28T08:39:37;102765.63;;;3.17;55.10
45763;BME280;37512;52.408;13.356;2023-02-28T08:43:39;102762.03;;;3.17;57.03
45763;BME280;37512;52.408;13.356;2023-02-28T08:47:41;102770.22;;;3.59;57.29
45763;BME280;37512;52.408;13.356;2023-02-28T08:51:43;102773.78;;;3.60;56.95
45763;BME280;37512;52.408;13.356;2023-02-28T08:55:44;102768.13;;;3.82;57.24
45763;BME280;37512;52.408;13.356;2023-02-28T08:59:46;102762.13;;;3.95;56.37
45763;BME280;37512;52.408;13.356;2023-02-28T09:03:49;102769.44;;;3.64;56.37
45763;BME280;37512;52.408;13.356;2023-02-28T09:07:51;102776.66;;;3.85;54.52
45763;BME280;37512;52.408;13.356;2023-02-28T09:11:55;102773.91;;;3.85;50.69
45763;BME280;37512;52.408;13.356;2023-02-28T09:15:58;102770.56;;;3.68;49.14
45763;BME280;37512;52.408;13.356;2023-02-28T09:20:00;102768.97;;;3.87;48.52
45763;BME280;37512;52.408;13.356;2023-02-28T09:24:02;102772.34;;;4.15;48.27
45763;BME280;37512;52.408;13.356;2023-02-28T09:28:03;102777.38;;;4.69;48.14
45763;BME280;37512;52.408;13.356;2023-02-28T09:32:05;102766.91;;;4.40;45.64
45763;BME280;37512;52.408;13.356;2023-02-28T09:36:09;102777.94;;;4.66;46.32
45763;BME280;37512;52.408;13.356;2023-02-28T09:40:11;102775.16;;;4.51;46.47
45763;BME280;37512;52.408;13.356;2023-02-28T09:48:31;102771.25;;;5.34;45.42
45763;BME280;37512;52.408;13.356;2023-02-28T09:52:38;102767.13;;;5.36;44.22
45763;BME280;37512;52.408;13.356;2023-02-28T09:56:42;102774.28;;;5.32;44.29
45763;BME280;37512;52.408;13.356;2023-02-28T10:00:43;102768.72;;;5.53;43.83
45763;BME280;37512;52.408;13.356;2023-02-28T10:04:55;102776.22;;;5.27;44.30
45763;BME280;37512;52.408;13.356;2023-02-28T10:09:11;102775.31;;;5.57;44.35
45763;BME280;37512;52.408;13.356;2023-02-28T10:17:39;102772.28;;;5.63;43.50
45763;BME280;37512;52.408;13.356;2023-02-28T10:22:08;102767.13;;;6.06;44.26
45763;BME280;37512;52.408;13.356;2023-02-28T10:26:13;102766.13;;;6.32;44.16
45763;BME280;37512;52.408;13.356;2023-02-28T10:30:17;102765.59;;;6.35;43.29
45763;BME280;37512;52.408;13.356;2023-02-28T10:34:18;102768.41;;;6.64;43.55
45763;BME280;37512;52.408;13.356;2023-02-28T10:38:37;102772.03;;;7.18;41.72
45763;BME280;37512;52.408;13.356;2023-02-28T10:42:38;102766.50;;;6.94;40.78
45763;BME280;37512;52.408;13.356;2023-02-28T10:46:41;102763.47;;;7.19;41.04
45763;BME280;37512;52.408;13.356;2023-02-28T10:54:48;102765.78;;;7.60;40.36
45763;BME280;37512;52.408;13.356;2023-02-28T11:03:00;102755.47;;;8.28;39.85
45763;BME280;37512;52.408;13.356;2023-02-28T11:07:25;102755.91;;;8.16;39.55
45763;BME280;37512;52.408;13.356;2023-02-28T11:11:29;102754.34;;;8.29;38.63
45763;BME280;37512;52.408;13.356;2023-02-28T11:15:33;102746.97;;;8.43;38.59
45763;BME280;37512;52.408;13.356;2023-02-28T11:19:40;102750.53;;;8.63;38.86
45763;BME280;37512;52.408;13.356;2023-02-28T11:23:45;102741.63;;;8.28;38.01
45763;BME280;37512;52.408;13.356;2023-02-28T11:27:50;102740.75;;;8.51;37.41
45763;BME280;37512;52.408;13.356;2023-02-28T11:36:22;102719.81;;;7.88;38.24
45763;BME280;37512;52.408;13.356;2023-02-28T11:40:43;102726.94;;;8.98;37.72
45763;BME280;37512;52.408;13.356;2023-02-28T11:53:48;102720.41;;;9.08;36.12
45763;BME280;37512;52.408;13.356;2023-02-28T12:02:23;102719.78;;;9.11;36.44
45763;BME280;37512;52.408;13.356;2023-02-28T12:06:34;102719.25;;;9.09;37.06
45763;BME280;37512;52.408;13.356;2023-02-28T12:15:24;102718.50;;;8.89;36.49
45763;BME280;37512;52.408;13.356;2023-02-28T12:24:24;102709.81;;;10.15;35.78
45763;BME280;37512;52.408;13.356;2023-02-28T12:28:02;102702.78;;;10.32;35.03
45763;BME280;37512;52.408;13.356;2023-02-28T12:36:20;102698.88;;;10.86;34.01
45763;BME280;37512;52.408;13.356;2023-02-28T12:40:43;102683.81;;;10.11;34.39
45763;BME280;37512;52.408;13.356;2023-02-28T12:44:53;102681.69;;;10.31;35.20
45763;BME280;37512;52.408;13.356;2023-02-28T12:48:56;102674.50;;;10.52;34.96
45763;BME280;37512;52.408;13.356;2023-02-28T13:06:28;102641.41;;;10.19;34.48
45763;BME280;37512;52.408;13.356;2023-02-28T13:10:45;102632.56;;;10.31;35.40
45763;BME280;37512;52.408;13.356;2023-02-28T13:14:47;102635.00;;;10.55;33.87
45763;BME280;37512;52.408;13.356;2023-02-28T13:18:51;102633.66;;;10.08;34.80
45763;BME280;37512;52.408;13.356;2023-02-28T13:22:55;102632.22;;;9.88;35.03
45763;BME280;37512;52.408;13.356;2023-02-28T13:31:04;102632.59;;;9.95;34.37
45763;BME280;37512;52.408;13.356;2023-02-28T13:48:19;102628.06;;;10.75;33.44
45763;BME280;37512;52.408;13.356;2023-02-28T13:52:25;102617.59;;;10.41;33.77
45763;BME280;37512;52.408;13.356;2023-02-28T13:56:42;102615.63;;;10.41;34.37
45763;BME280;37512;52.408;13.356;2023-02-28T14:01:02;102615.22;;;10.88;33.17
45763;BME280;37512;52.408;13.356;2023-02-28T14:05:13;102608.81;;;11.27;33.48
45763;BME280;37512;52.408;13.356;2023-02-28T14:13:42;102606.41;;;10.95;33.39
45763;BME280;37512;52.408;13.356;2023-02-28T14:17:52;102604.44;;;11.70;32.50
45763;BME280;37512;52.408;13.356;2023-02-28T14:35:02;102603.72;;;11.21;31.54
45763;BME280;37512;52.408;13.356;2023-02-28T14:39:11;102607.50;;;12.38;31.31
45763;BME280;37512;52.408;13.356;2023-02-28T14:43:23;102606.50;;;11.21;31.86
45763;BME280;37512;52.408;13.356;2023-02-28T14:47:30;102601.94;;;11.25;31.88
45763;BME280;37512;52.408;13.356;2023-02-28T14:51:33;102596.56;;;11.46;32.26
45763;BME280;37512;52.408;13.356;2023-02-28T14:55:35;102590.34;;;12.10;31.77
45763;BME280;37512;52.408;13.356;2023-02-28T14:59:37;102591.53;;;12.09;30.99
45763;BME280;37512;52.408;13.356;2023-02-28T15:03:39;102598.22;;;11.64;31.47
45763;BME280;37512;52.408;13.356;2023-02-28T15:07:40;102597.56;;;10.53;33.24
45763;BME280;37512;52.408;13.356;2023-02-28T15:11:46;102591.63;;;9.55;34.62
45763;BME280;37512;52.408;13.356;2023-02-28T15:15:57;102588.94;;;9.64;34.58
45763;BME280;37512;52.408;13.356;2023-02-28T15:20:04;102584.88;;;8.97;36.54
45763;BME280;37512;52.408;13.356;2023-02-28T15:28:25;102577.31;;;10.92;32.75
45763;BME280;37512;52.408;13.356;2023-02-28T15:32:35;102575.28;;;11.41;32.25
45763;BME280;37512;52.408;13.356;2023-02-28T15:36:37;102572.69;;;10.16;33.79
45763;BME280;37512;52.408;13.356;2023-02-28T15:40:42;102573.47;;;9.86;34.47
45763;BME280;37512;52.408;13.356;2023-02-28T15:44:44;102573.03;;;9.92;34.66
45763;BME280;37512;52.408;13.356;2023-02-28T15:48:54;102579.41;;;8.18;37.15
45763;BME280;37512;52.408;13.356;2023-02-28T15:52:56;102577.38;;;8.84;36.87
45763;BME280;37512;52.408;13.356;2023-02-28T15:57:03;102570.22;;;9.47;35.95
45763;BME280;37512;52.408;13.356;2023-02-28T16:01:19;102576.34;;;8.80;36.54
45763;BME280;37512;52.408;13.356;2023-02-28T16:05:29;102578.44;;;7.38;39.24
45763;BME280;37512;52.408;13.356;2023-02-28T16:09:33;102583.84;;;8.00;38.87
45763;BME280;37512;52.408;13.356;2023-02-28T16:13:36;102586.38;;;7.83;38.65
45763;BME280;37512;52.408;13.356;2023-02-28T16:17:38;102586.84;;;7.09;40.51
45763;BME280;37512;52.408;13.356;2023-02-28T16:21:40;102579.09;;;7.11;41.19
45763;BME280;37512;52.408;13.356;2023-02-28T16:25:43;102586.50;;;5.75;44.03
45763;BME280;37512;52.408;13.356;2023-02-28T16:29:46;102590.09;;;6.44;42.71
45763;BME280;37512;52.408;13.356;2023-02-28T16:33:48;102586.78;;;6.13;43.48
45763;BME280;37512;52.408;13.356;2023-02-28T16:37:50;102588.19;;;5.21;46.23
45763;BME280;37512;52.408;13.356;2023-02-28T16:41:52;102593.06;;;5.84;44.44
45763;BME280;37512;52.408;13.356;2023-02-28T16:45:57;102595.91;;;5.69;45.45
45763;BME280;37512;52.408;13.356;2023-02-28T16:50:04;102588.59;;;5.49;45.36
45763;BME280;37512;52.408;13.356;2023-02-28T16:54:06;102583.00;;;4.13;48.18
45763;BME280;37512;52.408;13.356;2023-02-28T16:58:13;102592.06;;;3.98;49.22
45763;BME280;37512;52.408;13.356;2023-02-28T17:02:16;102592.06;;;3.83;50.03
45763;BME280;37512;52.408;13.356;2023-02-28T17:06:24;102592.50;;;3.29;52.22
45763;BME280;37512;52.408;13.356;2023-02-28T17:10:28;102603.44;;;3.19;53.44
45763;BME280;37512;52.408;13.356;2023-02-28T17:14:31;102597.03;;;4.22;51.50
45763;BME280;37512;52.408;13.356;2023-02-28T17:18:32;102604.13;;;3.87;52.79
45763;BME280;37512;52.408;13.356;2023-02-28T17:22:35;102607.19;;;2.92;55.69
45763;BME280;37512;52.408;13.356;2023-02-28T17:26:41;102612.72;;;2.55;57.49
45763;BME280;37512;52.408;13.356;2023-02-28T17:30:43;102605.97;;;2.30;58.46
45763;BME280;37512;52.408;13.356;2023-02-28T17:34:48;102614.03;;;2.42;60.86
45763;BME280;37512;52.408;13.356;2023-02-28T17:38:50;102609.50;;;2.63;60.63
45763;BME280;37512;52.408;13.356;2023-02-28T17:42:51;102608.91;;;3.19;58.49
45763;BME280;37512;52.408;13.356;2023-02-28T17:46:54;102607.38;;;3.43;56.84
45763;BME280;37512;52.408;13.356;2023-02-28T17:50:56;102613.41;;;3.40;57.47
45763;BME280;37512;52.408;13.356;2023-02-28T17:54:57;102611.22;;;3.52;56.78
45763;BME280;37512;52.408;13.356;2023-02-28T17:58:59;102606.84;;;3.62;55.75
45763;BME280;37512;52.408;13.356;2023-02-28T18:03:01;102622.72;;;3.44;57.28
45763;BME280;37512;52.408;13.356;2023-02-28T18:07:02;102617.97;;;3.14;57.91
45763;BME280;37512;52.408;13.356;2023-02-28T18:11:04;102616.06;;;1.92;66.35
45763;BME280;37512;52.408;13.356;2023-02-28T18:15:06;102621.25;;;2.58;63.53
45763;BME280;37512;52.408;13.356;2023-02-28T18:19:08;102619.03;;;1.85;67.15
45763;BME280;37512;52.408;13.356;2023-02-28T18:23:15;102616.13;;;1.97;68.34
45763;BME280;37512;52.408;13.356;2023-02-28T18:27:18;102609.00;;;1.96;65.31
45763;BME280;37512;52.408;13.356;2023-02-28T18:31:25;102626.00;;;1.71;67.23
45763;BME280;37512;52.408;13.356;2023-02-28T18:35:27;102630.28;;;1.89;63.87
45763;BME280;37512;52.408;13.356;2023-02-28T18:39:35;102623.31;;;2.41;66.70
45763;BME280;37512;52.408;13.356;2023-02-28T18:43:37;102626.22;;;2.66;64.73
45763;BME280;37512;52.408;13.356;2023-02-28T18:47:39;102630.31;;;2.21;66.73
45763;BME280;37512;52.408;13.356;2023-02-28T18:51:41;102633.66;;;1.96;67.81
45763;BME280;37512;52.408;13.356;2023-02-28T18:55:46;102640.78;;;1.97;67.89
45763;BME280;37512;52.408;13.356;2023-02-28T18:59:48;102641.78;;;2.56;64.94
45763;BME280;37512;52.408;13.356;2023-02-28T19:03:49;102641.38;;;2.37;66.62
45763;BME280;37512;52.408;13.356;2023-02-28T19:07:51;102630.13;;;2.33;66.80
45763;BME280;37512;52.408;13.356;2023-02-28T19:11:53;102634.91;;;2.53;65.21
45763;BME280;37512;52.408;13.356;2023-02-28T19:16:02;102633.81;;;2.17;66.95
45763;BME280;37512;52.408;13.356;2023-02-28T19:20:05;102630.47;;;2.42;67.28
45763;BME280;37512;52.408;13.356;2023-02-28T19:24:06;102622.03;;;2.16;68.94
45763;BME280;37512;52.408;13.356;2023-02-28T19:28:08;102617.28;;;1.25;75.26
45763;BME280;37512;52.408;13.356;2023-02-28T19:32:10;102626.09;;;1.81;72.48
45763;BME280;37512;52.408;13.356;2023-02-28T19:36:12;102631.63;;;1.86;72.31
45763;BME280;37512;52.408;13.356;2023-02-28T19:40:14;102641.09;;;1.74;73.30
45763;BME280;37512;52.408;13.356;2023-02-28T19:44:15;102646.78;;;1.94;71.81
45763;BME280;37512;52.408;13.356;2023-02-28T19:48:17;102647.38;;;2.01;72.12
45763;BME280;37512;52.408;13.356;2023-02-28T19:52:23;102648.53;;;1.78;73.78
45763;BME280;37512;52.408;13.356;2023-02-28T19:56:25;102645.59;;;1.36;77.74
45763;BME280;37512;52.408;13.356;2023-02-28T20:00:26;102646.28;;;1.48;77.62
45763;BME280;37512;52.408;13.356;2023-02-28T20:04:28;102634.69;;;1.41;76.32
45763;BME280;37512;52.408;13.356;2023-02-28T20:08:29;102632.88;;;1.24;75.23
45763;BME280;37512;52.408;13.356;2023-02-28T20:12:31;102634.78;;;0.63;82.38
45763;BME280;37512;52.408;13.356;2023-02-28T20:16:33;102641.06;;;0.63;82.10
45763;BME280;37512;52.408;13.356;2023-02-28T20:20:35;102640.31;;;0.85;80.38
45763;BME280;37512;52.408;13.356;2023-02-28T20:24:37;102638.00;;;0.77;80.18
45763;BME280;37512;52.408;13.356;2023-02-28T20:28:40;102638.88;;;0.10;84.87
45763;BME280;37512;52.408;13.356;2023-02-28T20:32:41;102634.06;;;0.51;83.83
45763;BME280;37512;52.408;13.356;2023-02-28T20:36:43;102636.78;;;0.34;85.00
45763;BME280;37512;52.408;13.356;2023-02-28T20:40:45;102633.66;;;0.42;85.33
45763;BME280;37512;52.408;13.356;2023-02-28T20:44:46;102630.09;;;0.25;87.79
45763;BME280;37512;52.408;13.356;2023-02-28T20:48:48;102623.31;;;0.44;87.83
45763;BME280;37512;52.408;13.356;2023-02-28T20:52:49;102624.13;;;0.45;86.63
45763;BME280;37512;52.408;13.356;2023-02-28T20:56:51;102611.47;;;0.38;85.76
45763;BME280;37512;52.408;13.356;2023-02-28T21:01:12;102612.06;;;0.24;88.29
45763;BME280;37512;52.408;13.356;2023-02-28T21:05:17;102613.06;;;0.17;90.30
45763;BME280;37512;52.408;13.356;2023-02-28T21:09:18;102610.66;;;0.04;90.33
45763;BME280;37512;52.408;13.356;2023-02-28T21:13:20;102617.19;;;0.03;92.65
45763;BME280;37512;52.408;13.356;2023-02-28T21:17:21;102609.16;;;-0.04;90.74
45763;BME280;37512;52.408;13.356;2023-02-28T21:21:23;102608.00;;;-0.08;92.07
45763;BME280;37512;52.408;13.356;2023-02-28T21:25:25;102610.97;;;-0.26;93.06
45763;BME280;37512;52.408;13.356;2023-02-28T21:29:26;102608.31;;;-0.21;92.85
45763;BME280;37512;52.408;13.356;2023-02-28T21:33:28;102614.28;;;-0.24;92.39
45763;BME280;37512;52.408;13.356;2023-02-28T21:37:30;102615.75;;;-0.16;93.59
45763;BME280;37512;52.408;13.356;2023-02-28T21:41:32;102612.28;;;-0.12;93.41
45763;BME280;37512;52.408;13.356;2023-02-28T21:45:33;102610.88;;;-0.14;93.68
45763;BME280;37512;52.408;13.356;2023-02-28T21:49:35;102623.34;;;-0.18;94.30
45763;BME280;37512;52.408;13.356;2023-02-28T21:53:40;102616.25;;;-0.19;94.85
45763;BME280;37512;52.408;13.356;2023-02-28T21:57:41;102616.34;;;0.53;100.00
45763;BME280;37512;52.408;13.356;2023-02-28T22:01:44;102621.41;;;0.45;100.00
45763;BME280;37512;52.408;13.356;2023-02-28T22:05:46;102626.63;;;0.12;98.18
45763;BME280;37512;52.408;13.356;2023-02-28T22:09:48;102622.97;;;-0.10;97.58
45763;BME280;37512;52.408;13.356;2023-02-28T22:13:54;102623.34;;;-0.18;98.77
45763;BME280;37512;52.408;13.356;2023-02-28T22:17:57;102629.88;;;-0.36;98.59
45763;BME280;37512;52.408;13.356;2023-02-28T22:21:58;102623.88;;;-0.50;99.48
45763;BME280;37512;52.408;13.356;2023-02-28T22:26:02;102633.63;;;-0.54;99.10
45763;BME280;37512;52.408;13.356;2023-02-28T22:30:04;102632.00;;;-0.67;98.10
45763;BME280;37512;52.408;13.356;2023-02-28T22:34:09;102632.69;;;-0.89;98.59
45763;BME280;37512;52.408;13.356;2023-02-28T22:38:11;102637.06;;;-0.99;98.70
45763;BME280;37512;52.408;13.356;2023-02-28T22:42:13;102638.03;;;-1.06;100.00
45763;BME280;37512;52.408;13.356;2023-02-28T22:46:14;102649.53;;;-1.51;100.00
45763;BME280;37512;52.408;13.356;2023-02-28T22:50:16;102644.69;;;-1.13;100.00
45763;BME280;37512;52.408;13.356;2023-02-28T22:54:18;102650.84;;;-1.18;100.00
45763;BME280;37512;52.408;13.356;2023-02-28T22:58:19;102645.16;;;-1.28;100.00
45763;BME280;37512;52.408;13.356;2023-02-28T23:02:21;102643.50;;;-1.29;100.00
45763;BME280;37512;52.408;13.356;2023-02-28T23:06:25;102642.44;;;-1.28;100.00
45763;BME280;37512;52.408;13.356;2023-02-28T23:10:27;102659.59;;;-1.39;100.00
45763;BME280;37512;52.408;13.356;2023-02-28T23:14:29;102662.34;;;-1.39;100.00